createdAt,value
2023-03-18T00:01:07.718Z,8.20
2023-03-18T00:03:38.674Z,8.20
2023-03-18T00:06:08.679Z,8.30
2023-03-18T00:08:39.433Z,8.30
2023-03-18T00:11:08.041Z,8.30
2023-03-18T00:13:36.684Z,8.30
2023-03-18T00:16:07.242Z,8.50
2023-03-18T00:18:35.612Z,8.60
2023-03-18T00:21:03.852Z,8.60
2023-03-18T00:23:33.270Z,8.60
2023-03-18T00:26:03.085Z,8.60
2023-03-18T00:28:32.724Z,8.50
2023-03-18T00:31:05.357Z,8.50
2023-03-18T00:33:33.785Z,8.60
2023-03-18T00:36:02.799Z,8.60
2023-03-18T00:38:30.778Z,8.70
2023-03-18T00:41:11.439Z,8.70
2023-03-18T00:43:52.599Z,8.70
2023-03-18T00:46:23.526Z,8.50
2023-03-18T00:48:52.538Z,8.40
2023-03-18T00:51:22.823Z,8.40
2023-03-18T00:53:53.134Z,8.40
2023-03-18T00:56:23.994Z,8.40
2023-03-18T00:58:53.898Z,8.30
2023-03-18T01:01:23.060Z,8.20
2023-03-18T01:03:51.665Z,8.20
2023-03-18T01:06:25.634Z,8.00
2023-03-18T01:08:53.840Z,8.10
2023-03-18T01:11:21.974Z,8.20
2023-03-18T01:13:50.157Z,8.30
2023-03-18T01:16:20.964Z,8.30
2023-03-18T01:21:23.637Z,8.30
2023-03-18T01:23:51.521Z,8.20
2023-03-18T01:26:19.649Z,8.20
2023-03-18T01:28:48.117Z,8.30
2023-03-18T01:31:16.369Z,8.40
2023-03-18T01:33:46.081Z,8.30
2023-03-18T01:36:15.381Z,8.30
2023-03-18T01:38:43.242Z,8.30
2023-03-18T01:41:12.426Z,8.40
2023-03-18T01:43:43.696Z,8.50
2023-03-18T01:46:37.480Z,8.40
2023-03-18T01:49:10.678Z,8.40
2023-03-18T01:51:40.702Z,8.30
2023-03-18T01:54:10.418Z,8.30
2023-03-18T01:56:41.528Z,8.40
2023-03-18T01:59:10.547Z,8.40
2023-03-18T02:01:43.856Z,8.30
2023-03-18T02:04:19.108Z,8.40
2023-03-18T02:06:47.145Z,8.40
2023-03-18T02:09:16.112Z,8.40
2023-03-18T02:11:46.739Z,8.30
2023-03-18T02:14:17.028Z,8.20
2023-03-18T02:16:48.614Z,8.10
2023-03-18T02:19:30.571Z,8.20
2023-03-18T02:22:06.506Z,8.20
2023-03-18T02:24:40.576Z,8.20
2023-03-18T02:27:18.300Z,8.30
2023-03-18T02:29:47.824Z,8.40
2023-03-18T02:32:17.186Z,8.30
2023-03-18T02:34:46.711Z,8.30
2023-03-18T02:37:14.650Z,8.30
2023-03-18T02:39:42.488Z,8.20
2023-03-18T02:42:13.054Z,8.30
2023-03-18T02:44:44.839Z,8.20
2023-03-18T02:47:16.116Z,8.10
2023-03-18T02:49:44.569Z,8.00
2023-03-18T02:52:12.808Z,8.00
2023-03-18T02:54:41.171Z,7.80
2023-03-18T02:57:09.144Z,7.80
2023-03-18T02:59:36.940Z,7.80
2023-03-18T03:02:06.611Z,7.90
2023-03-18T03:04:34.946Z,7.80
2023-03-18T03:07:02.823Z,7.60
2023-03-18T03:09:31.123Z,7.50
2023-03-18T03:11:58.978Z,7.40
2023-03-18T03:14:26.946Z,7.30
2023-03-18T03:16:54.839Z,7.20
2023-03-18T03:19:24.035Z,7.20
2023-03-18T03:21:52.284Z,7.10
2023-03-18T03:24:20.411Z,7.20
2023-03-18T03:26:48.620Z,7.30
2023-03-18T03:29:16.441Z,7.30
2023-03-18T03:31:44.290Z,7.10
2023-03-18T03:34:12.259Z,7.10
2023-03-18T03:36:41.596Z,7.10
2023-03-18T03:39:09.481Z,7.00
2023-03-18T03:41:37.404Z,6.90
2023-03-18T03:44:05.369Z,6.80
2023-03-18T03:46:33.277Z,6.70
2023-03-18T03:49:01.344Z,6.60
2023-03-18T03:51:29.380Z,6.50
2023-03-18T03:53:59.012Z,6.60
2023-03-18T03:56:27.329Z,6.60
2023-03-18T03:58:55.363Z,6.50
2023-03-18T04:01:23.346Z,6.40
2023-03-18T04:03:51.384Z,6.40
2023-03-18T04:06:19.598Z,6.40
2023-03-18T04:08:47.650Z,6.40
2023-03-18T04:11:17.324Z,6.40
2023-03-18T04:13:45.638Z,6.40
2023-03-18T04:16:14.551Z,6.30
2023-03-18T04:18:42.593Z,6.30
2023-03-18T04:21:10.740Z,6.20
2023-03-18T04:23:38.805Z,6.10
2023-03-18T04:26:07.079Z,6.00
2023-03-18T04:28:36.528Z,5.90
2023-03-18T04:31:04.861Z,5.70
2023-03-18T04:33:33.566Z,5.70
2023-03-18T04:36:01.769Z,5.50
2023-03-18T04:38:29.817Z,5.40
2023-03-18T04:40:57.959Z,5.30
2023-03-18T04:43:25.998Z,5.30
2023-03-18T04:45:55.481Z,5.30
2023-03-18T04:48:23.452Z,5.20
2023-03-18T04:50:51.567Z,5.10
2023-03-18T04:53:19.918Z,5.00
2023-03-18T04:55:49.449Z,4.80
2023-03-18T04:58:17.892Z,4.80
2023-03-18T05:00:46.215Z,4.70
2023-03-18T05:03:15.935Z,4.60
2023-03-18T05:05:44.114Z,4.60
2023-03-18T05:08:12.889Z,4.50
2023-03-18T05:10:41.395Z,4.50
2023-03-18T05:13:11.173Z,4.40
2023-03-18T05:15:39.185Z,4.40
2023-03-18T05:18:07.255Z,4.30
2023-03-18T05:20:36.567Z,4.30
2023-03-18T05:23:04.844Z,4.30
2023-03-18T05:25:33.516Z,4.30
2023-03-18T05:28:01.940Z,4.20
2023-03-18T05:30:30.006Z,4.20
2023-03-18T05:32:58.624Z,4.20
2023-03-18T05:35:26.655Z,4.30
2023-03-18T05:37:56.077Z,4.20
2023-03-18T05:40:24.216Z,4.10
2023-03-18T05:42:56.261Z,4.10
2023-03-18T05:45:24.877Z,4.10
2023-03-18T05:47:53.183Z,4.10
2023-03-18T05:50:30.129Z,4.20
2023-03-18T05:52:59.903Z,4.40
2023-03-18T05:55:28.436Z,4.60
2023-03-18T05:57:57.260Z,4.80
2023-03-18T06:00:25.835Z,5.00
2023-03-18T06:02:54.099Z,5.00
2023-03-18T06:05:23.242Z,5.00
2023-03-18T06:07:51.515Z,5.10
2023-03-18T06:10:22.678Z,5.10
2023-03-18T06:12:51.303Z,5.20
2023-03-18T06:15:21.498Z,5.20
2023-03-18T06:17:50.035Z,5.30
2023-03-18T06:20:19.676Z,5.30
2023-03-18T06:22:49.984Z,5.30
2023-03-18T06:25:21.765Z,5.30
2023-03-18T06:27:50.041Z,5.30
2023-03-18T06:30:19.254Z,5.30
2023-03-18T06:32:47.932Z,5.40
2023-03-18T06:35:16.699Z,5.50
2023-03-18T06:37:44.736Z,5.50
2023-03-18T06:40:13.424Z,5.50
2023-03-18T06:42:43.088Z,5.60
2023-03-18T06:45:12.118Z,5.60
2023-03-18T06:47:41.175Z,5.70
2023-03-18T06:50:10.398Z,5.80
2023-03-18T06:52:39.189Z,5.90
2023-03-18T06:55:08.154Z,5.90
2023-03-18T06:57:36.136Z,6.00
2023-03-18T07:00:06.322Z,6.10
2023-03-18T07:02:34.677Z,6.20
2023-03-18T07:05:04.368Z,6.40
2023-03-18T07:07:32.564Z,6.50
2023-03-18T07:10:00.794Z,6.70
2023-03-18T07:12:28.974Z,6.70
2023-03-18T07:14:56.922Z,6.90
2023-03-18T08:11:26.126Z,13.90
2023-03-18T08:13:54.309Z,14.20
2023-03-18T08:16:23.231Z,14.50
2023-03-18T08:19:02.446Z,14.60
2023-03-18T08:21:30.924Z,14.50
2023-03-18T08:23:59.040Z,14.40
2023-03-18T08:26:30.722Z,14.10
2023-03-18T08:28:58.742Z,14.20
2023-03-18T08:31:29.094Z,14.20
2023-03-18T08:34:00.615Z,14.30
2023-03-18T08:36:28.793Z,14.70
2023-03-18T08:38:58.115Z,14.90
2023-03-18T08:41:26.654Z,15.00
2023-03-18T08:44:01.846Z,14.70
2023-03-18T08:46:30.440Z,14.80
2023-03-18T08:48:59.870Z,14.90
2023-03-18T08:51:29.381Z,14.90
2023-03-18T08:54:00.675Z,15.10
2023-03-18T08:56:29.170Z,15.30
2023-03-18T08:59:05.219Z,15.50
2023-03-18T09:01:33.453Z,15.40
2023-03-18T09:04:02.631Z,15.50
2023-03-18T09:06:31.549Z,15.50
2023-03-18T09:09:01.980Z,15.90
2023-03-18T09:11:31.370Z,16.60
2023-03-18T09:14:00.902Z,16.80
2023-03-18T09:16:35.942Z,16.70
2023-03-18T09:19:04.373Z,16.30
2023-03-18T09:21:36.240Z,16.20
2023-03-18T09:24:07.088Z,15.70
2023-03-18T09:26:39.911Z,15.40
2023-03-18T09:36:14.860Z,16.40
2023-03-18T09:38:43.860Z,16.60
2023-03-18T09:41:25.715Z,16.70
2023-03-18T09:44:04.222Z,16.90
2023-03-18T09:46:48.005Z,17.20
2023-03-18T09:49:33.211Z,17.20
2023-03-18T09:52:14.189Z,17.30
2023-03-18T09:54:47.279Z,17.50
2023-03-18T09:57:20.641Z,17.90
2023-03-18T09:59:51.856Z,17.90
2023-03-18T10:02:24.758Z,17.50
2023-03-18T10:04:57.444Z,17.40
2023-03-18T10:07:31.091Z,17.40
2023-03-18T10:10:04.676Z,17.20
2023-03-18T10:12:35.539Z,17.20
2023-03-18T10:15:14.978Z,17.10
2023-03-18T10:17:47.310Z,16.90
2023-03-18T10:20:19.936Z,16.70
2023-03-18T10:23:07.215Z,16.70
2023-03-18T10:25:39.010Z,16.60
2023-03-18T10:28:42.602Z,16.90
2023-03-18T10:31:25.612Z,17.10
2023-03-18T10:34:00.155Z,17.30
2023-03-18T10:36:39.296Z,17.60
2023-03-18T10:39:15.364Z,17.60
2023-03-18T10:41:49.978Z,17.70
2023-03-18T10:44:22.800Z,17.80
2023-03-18T10:46:59.936Z,17.80
2023-03-18T10:49:32.988Z,17.70
2023-03-18T10:52:07.836Z,17.70
2023-03-18T10:54:41.282Z,17.80
2023-03-18T10:57:14.267Z,17.80
2023-03-18T10:59:44.729Z,17.80
2023-03-18T11:02:19.677Z,17.80
2023-03-18T11:04:55.451Z,17.70
2023-03-18T11:07:26.770Z,17.60
2023-03-18T11:09:55.766Z,17.30
2023-03-18T11:12:27.101Z,17.20
2023-03-18T11:14:56.384Z,17.10
2023-03-18T11:17:28.223Z,17.10
2023-03-18T11:20:08.195Z,17.00
2023-03-18T11:22:38.771Z,17.10
2023-03-18T11:25:16.655Z,17.30
2023-03-18T11:27:47.233Z,17.40
2023-03-18T11:30:33.259Z,17.60
2023-03-18T11:33:06.332Z,17.60
2023-03-18T11:35:40.886Z,17.40
2023-03-18T11:38:16.328Z,17.30
2023-03-18T11:40:44.871Z,17.20
2023-03-18T11:43:20.597Z,16.90
2023-03-18T11:45:53.413Z,16.90
2023-03-18T11:48:30.629Z,17.10
2023-03-18T11:51:35.717Z,17.20
2023-03-18T11:54:15.362Z,17.20
2023-03-18T11:56:47.854Z,17.30
2023-03-18T11:59:33.586Z,17.40
2023-03-18T12:02:25.427Z,17.50
2023-03-18T12:05:28.758Z,17.80
2023-03-18T12:08:07.753Z,18.10
2023-03-18T12:10:39.022Z,18.30
2023-03-18T12:13:25.741Z,18.50
2023-03-18T12:16:05.027Z,18.60
2023-03-18T12:18:48.929Z,18.50
2023-03-18T12:21:31.843Z,18.50
2023-03-18T12:24:14.595Z,18.20
2023-03-18T12:26:52.569Z,18.40
2023-03-18T12:29:38.558Z,18.60
2023-03-18T12:32:14.548Z,18.70
2023-03-18T12:35:10.874Z,18.70
2023-03-18T12:37:53.916Z,18.60
2023-03-18T12:40:34.393Z,18.70
2023-03-18T12:43:34.990Z,18.80
2023-03-18T12:46:10.489Z,18.90
2023-03-18T12:48:46.411Z,18.90
2023-03-18T12:51:19.194Z,18.80
2023-03-18T12:53:50.191Z,18.80
2023-03-18T12:56:22.451Z,18.80
2023-03-18T12:58:55.177Z,18.80
2023-03-18T13:01:28.561Z,18.70
2023-03-18T13:04:02.088Z,18.80
2023-03-18T13:06:35.502Z,18.90
2023-03-18T13:09:13.378Z,18.90
2023-03-18T13:12:05.099Z,18.70
2023-03-18T13:14:49.270Z,18.80
2023-03-18T13:17:23.451Z,18.90
2023-03-18T13:19:51.927Z,18.80
2023-03-18T13:22:49.569Z,18.80
2023-03-18T13:25:29.040Z,18.80
2023-03-18T13:28:21.730Z,18.70
2023-03-18T13:31:07.879Z,18.80
2023-03-18T13:33:54.081Z,18.70
2023-03-18T13:36:51.673Z,18.90
2023-03-18T13:39:31.661Z,18.90
2023-03-18T13:42:22.378Z,18.80
2023-03-18T13:44:59.851Z,18.80
2023-03-18T13:47:32.777Z,18.80
2023-03-18T13:50:04.884Z,18.90
2023-03-18T13:52:41.920Z,19.00
2023-03-18T13:55:23.470Z,19.10
2023-03-18T13:57:57.466Z,19.20
2023-03-18T14:00:33.327Z,19.20
2023-03-18T14:03:17.211Z,19.10
2023-03-18T14:05:46.991Z,19.20
2023-03-18T14:08:35.363Z,19.20
2023-03-18T14:11:37.326Z,19.10
2023-03-18T14:14:07.205Z,19.00
2023-03-18T14:16:53.482Z,19.10
2023-03-18T14:19:28.501Z,19.10
2023-03-18T14:22:07.731Z,19.10
2023-03-18T14:24:36.783Z,19.10
2023-03-18T14:27:18.387Z,19.10
2023-03-18T14:29:48.173Z,19.10
2023-03-18T14:32:38.491Z,19.10
2023-03-18T14:35:28.291Z,18.80
2023-03-18T14:38:02.815Z,18.70
2023-03-18T14:40:36.287Z,18.60
2023-03-18T14:43:10.886Z,18.50
2023-03-18T14:45:44.176Z,18.60
2023-03-18T14:48:20.837Z,18.60
2023-03-18T14:50:50.917Z,18.60
2023-03-18T14:53:23.626Z,18.50
2023-03-18T14:55:55.118Z,18.50
2023-03-18T14:58:25.858Z,18.50
2023-03-18T15:00:56.207Z,18.50
2023-03-18T15:03:28.347Z,18.40
2023-03-18T15:06:00.453Z,18.40
2023-03-18T15:08:46.376Z,18.30
2023-03-18T15:11:17.495Z,18.20
2023-03-18T15:13:48.374Z,18.00
2023-03-18T15:16:20.206Z,17.90
2023-03-18T15:18:54.846Z,17.80
2023-03-18T15:21:25.970Z,17.70
2023-03-18T15:23:56.509Z,17.50
2023-03-18T15:26:27.123Z,17.40
2023-03-18T15:28:57.543Z,17.40
2023-03-18T15:31:27.562Z,17.40
2023-03-18T15:34:16.425Z,17.40
2023-03-18T15:36:46.328Z,17.40
2023-03-18T15:39:22.140Z,17.40
2023-03-18T15:41:53.978Z,17.30
2023-03-18T15:44:26.844Z,17.20
2023-03-18T15:46:56.046Z,17.10
2023-03-18T15:49:28.731Z,17.00
2023-03-18T15:52:02.424Z,16.90
2023-03-18T15:54:38.562Z,16.80
2023-03-18T15:57:13.213Z,16.70
2023-03-18T15:59:41.229Z,16.70
2023-03-18T16:02:16.470Z,16.60
2023-03-18T16:04:48.319Z,16.70
2023-03-18T16:07:22.136Z,16.70
2023-03-18T16:09:51.353Z,16.70
2023-03-18T16:12:21.969Z,16.80
2023-03-18T16:14:51.967Z,16.80
2023-03-18T16:17:22.240Z,16.80
2023-03-18T16:19:54.434Z,16.80
2023-03-18T16:22:23.235Z,16.70
2023-03-18T16:24:51.784Z,16.70
2023-03-18T16:27:30.065Z,16.50
2023-03-18T16:29:58.219Z,16.40
2023-03-18T16:32:26.358Z,16.20
2023-03-18T16:34:55.612Z,16.10
2023-03-18T16:37:25.926Z,15.90
2023-03-18T16:39:55.888Z,15.80
2023-03-18T16:42:25.181Z,15.60
2023-03-18T16:44:53.306Z,15.50
2023-03-18T16:47:23.642Z,15.40
2023-03-18T16:49:52.376Z,15.30
2023-03-18T16:52:22.006Z,15.00
2023-03-18T16:54:50.115Z,14.80
2023-03-18T16:57:21.611Z,14.60
2023-03-18T16:59:53.073Z,14.40
2023-03-18T17:02:32.481Z,14.20
2023-03-18T17:05:01.090Z,14.00
2023-03-18T17:07:30.527Z,13.70
2023-03-18T17:09:58.587Z,13.60
2023-03-18T17:12:29.175Z,13.40
2023-03-18T17:14:58.545Z,13.30
2023-03-18T17:17:30.568Z,13.20
2023-03-18T17:19:59.710Z,13.10
2023-03-18T17:22:29.516Z,12.90
2023-03-18T17:25:00.246Z,12.60
2023-03-18T17:27:32.874Z,12.50
2023-03-18T17:30:01.621Z,12.40
2023-03-18T17:32:29.700Z,12.20
2023-03-18T17:34:57.775Z,12.10
2023-03-18T17:37:25.786Z,11.90
2023-03-18T17:39:54.036Z,11.80
2023-03-18T17:42:29.632Z,11.70
2023-03-18T17:45:00.510Z,11.50
2023-03-18T17:47:28.636Z,11.50
2023-03-18T17:49:56.734Z,11.30
2023-03-18T17:52:25.316Z,11.20
2023-03-18T17:54:53.311Z,11.10
2023-03-18T17:57:21.278Z,11.10
2023-03-18T17:59:51.591Z,11.00
2023-03-18T18:02:20.395Z,11.00
2023-03-18T18:04:48.661Z,10.90
2023-03-18T18:07:19.091Z,10.90
2023-03-18T18:09:47.558Z,10.80
2023-03-18T18:12:19.155Z,10.70
2023-03-18T18:14:47.471Z,10.60
2023-03-18T18:17:17.412Z,10.50
2023-03-18T18:19:45.693Z,10.40
2023-03-18T18:22:19.208Z,10.30
2023-03-18T18:24:47.524Z,10.20
2023-03-18T18:27:16.328Z,10.20
2023-03-18T18:29:45.918Z,10.00
2023-03-18T18:32:16.498Z,10.00
2023-03-18T18:34:45.152Z,9.90
2023-03-18T18:37:13.429Z,9.90
2023-03-18T18:39:42.861Z,9.80
2023-03-18T18:42:12.408Z,9.80
2023-03-18T18:44:40.489Z,9.80
2023-03-18T18:47:20.272Z,9.80
2023-03-18T18:49:48.682Z,9.80
2023-03-18T18:52:16.986Z,9.80
2023-03-18T18:54:45.232Z,9.80
2023-03-18T18:57:26.744Z,9.70
2023-03-18T18:59:55.010Z,9.70
2023-03-18T19:02:31.257Z,9.70
2023-03-18T19:05:00.030Z,9.70
2023-03-18T19:07:29.383Z,9.70
2023-03-18T19:09:57.440Z,9.60
2023-03-18T19:12:25.794Z,9.60
2023-03-18T19:14:54.285Z,9.60
2023-03-18T19:17:24.324Z,9.60
2023-03-18T19:19:54.723Z,9.70
2023-03-18T19:22:23.394Z,9.60
2023-03-18T19:24:51.658Z,9.60
2023-03-18T19:27:23.963Z,9.70
2023-03-18T19:29:53.603Z,9.70
2023-03-18T19:32:23.206Z,9.70
2023-03-18T19:34:54.111Z,9.60
2023-03-18T19:37:26.073Z,9.60
2023-03-18T19:39:55.650Z,9.50
2023-03-18T19:42:24.158Z,9.40
2023-03-18T19:44:52.128Z,9.30
2023-03-18T19:47:24.157Z,9.30
2023-03-18T19:49:53.661Z,9.30
2023-03-18T19:52:23.852Z,9.20
2023-03-18T19:54:52.694Z,9.20
2023-03-18T19:57:24.381Z,9.20
2023-03-18T19:59:54.153Z,9.10
2023-03-18T20:02:24.375Z,9.10
2023-03-18T20:04:55.477Z,9.10
2023-03-18T20:07:25.666Z,9.10
2023-03-18T20:09:55.184Z,9.20
2023-03-18T20:12:26.263Z,9.20
2023-03-18T20:14:54.326Z,9.20
2023-03-18T20:17:30.815Z,9.30
2023-03-18T20:20:00.459Z,9.30
2023-03-18T20:22:32.955Z,9.30
2023-03-18T20:25:01.172Z,9.30
2023-03-18T20:27:30.168Z,9.30
2023-03-18T20:29:58.816Z,9.30
2023-03-18T20:32:27.089Z,9.30
2023-03-18T20:34:55.110Z,9.40
2023-03-18T20:37:31.050Z,9.50
2023-03-18T20:39:59.142Z,9.50
2023-03-18T20:42:27.279Z,9.60
2023-03-18T20:44:55.834Z,9.50
2023-03-18T20:47:23.881Z,9.60
2023-03-18T20:49:51.949Z,9.60
2023-03-18T20:52:27.125Z,9.50
2023-03-18T20:54:56.567Z,9.60
2023-03-18T20:57:25.083Z,9.50
2023-03-18T20:59:53.390Z,9.40
2023-03-18T21:02:29.437Z,9.40
2023-03-18T21:04:58.683Z,9.30
2023-03-18T21:07:28.511Z,9.20
2023-03-18T21:09:56.706Z,9.00
2023-03-18T21:12:25.863Z,8.90
2023-03-18T21:14:53.935Z,8.80
2023-03-18T21:17:23.958Z,8.70
2023-03-18T21:19:53.412Z,8.50
2023-03-18T21:22:23.740Z,8.40
2023-03-18T21:24:53.353Z,8.30
2023-03-18T21:27:22.815Z,8.20
2023-03-18T21:29:52.426Z,8.10
2023-03-18T21:32:25.510Z,8.00
2023-03-18T21:34:53.605Z,8.00
2023-03-18T21:37:24.562Z,7.90
2023-03-18T21:39:54.625Z,7.90
2023-03-18T21:42:25.141Z,7.80
2023-03-18T21:44:53.474Z,7.70
2023-03-18T21:47:23.751Z,7.60
2023-03-18T21:49:51.895Z,7.50
2023-03-18T21:52:27.423Z,7.40
2023-03-18T21:54:56.970Z,7.30
2023-03-18T21:57:25.892Z,7.30
2023-03-18T21:59:54.704Z,7.20
2023-03-18T22:02:28.450Z,7.10
2023-03-18T22:04:57.943Z,7.10
2023-03-18T22:07:26.271Z,7.10
2023-03-18T22:09:54.624Z,7.00
2023-03-18T22:12:26.534Z,7.00
2023-03-18T22:14:54.536Z,6.90
2023-03-18T22:17:26.235Z,6.90
2023-03-18T22:19:55.498Z,6.80
2023-03-18T22:22:28.825Z,6.70
2023-03-18T22:24:57.578Z,6.70
2023-03-18T22:27:28.789Z,6.60
2023-03-18T22:29:58.642Z,6.50
2023-03-18T22:32:40.197Z,6.50
2023-03-18T22:35:14.887Z,6.40
2023-03-18T22:37:43.235Z,6.40
2023-03-18T22:40:17.443Z,6.40
2023-03-18T22:42:47.138Z,6.30
2023-03-18T22:45:23.845Z,6.30
2023-03-18T22:47:53.346Z,6.30
2023-03-18T22:50:21.766Z,6.20
2023-03-18T22:52:51.887Z,6.20
2023-03-18T22:55:25.402Z,6.20
2023-03-18T22:57:54.917Z,6.10
2023-03-18T23:00:25.812Z,6.10
2023-03-18T23:02:55.010Z,6.00
2023-03-18T23:05:24.944Z,6.00
2023-03-18T23:07:53.600Z,6.00
2023-03-18T23:10:22.460Z,6.00
2023-03-18T23:12:50.844Z,6.00
2023-03-18T23:15:23.756Z,5.90
2023-03-18T23:17:51.978Z,5.80
2023-03-18T23:20:21.031Z,5.80
2023-03-18T23:22:49.542Z,5.80
2023-03-18T23:25:19.373Z,5.80
2023-03-18T23:27:48.150Z,5.80
2023-03-18T23:30:16.809Z,5.80
2023-03-18T23:32:46.948Z,5.80
2023-03-18T23:35:15.188Z,5.80
2023-03-18T23:37:43.372Z,5.80
2023-03-18T23:40:12.454Z,5.70
2023-03-18T23:42:40.896Z,5.70
2023-03-18T23:45:10.149Z,5.70
2023-03-18T23:47:38.832Z,5.70
2023-03-18T23:50:10.579Z,5.70
2023-03-18T23:52:38.918Z,5.70
2023-03-18T23:55:21.395Z,5.70
2023-03-18T23:57:56.479Z,5.70
